Huvudsida
METAR-TAF:

METAR-TAF

Flygplatser :

Vamdrup

Kolding, Danmark

latitud: 55-26N, longitud: 009-20E, höjd: 44 m

Aktuellt väderrapport

Denna rapport gjordes för 26 minuter sedan, klockan 05:50 UTC
Vind 8 kt från sydost
Temperatur 7°C
Fuktighet 87%
Tryck 1031 hPa

METAR: EKVD 160550Z AUTO 13008KT //// ///////// 07/05 Q1031

Tid: 07:16 (06:16 UTC)

Väderprognos

Denna rapport gjordes för 18 timmar och 52 minuter sedan, klockan 11:24 UTC
Prognos gäller från 15 kl. 12 UTC till 15 kl. 17 UTC
Vind 8 kt från syd/sydost
Sikt 10 km eller mer
Spridda moln på en höjd av 3000 ft

TAF: EKVD 151124Z 1512/1517 15008KT 9999 SCT030

Aktuella väderrapporter och prognoser från 4000 flygplatser (METAR- och TAF-rapporter).

De tillgängliga stationerna syns som gula och röda prickar på kartan.

För musen över prickarna för att se namnen på stationerna.

Klicka sedan för att få väderrapporter och prognoser.

För att ändra kartan: Klicka på de gröna knapparna med ett svart kors på för att zooma in; den gröna knappen med ett streck på för att zooma ut; eller på de gröna pilarna för angränsande kartor.


METAR-TAF: